Time;durP1;ratioP1;P1;durP2;ratioP2;P2;SDS_P1;SDS_P2;PMS_P1;PMS_P2;Temp;Humidity;BMP_temperature;BMP_pressure;BME280_temperature;BME280_humidity;BME280_pressure;Samples;Min_cycle;Max_cycle;Signal;HPM_P1;HPM_P2
2022/05/03 00:00:16;;;;;;;;;;;;;;;;;;5073143;28;19919;-55
2022/05/03 00:02:43;;;;;;;;;;;;;;;;;;5073511;28;19914;-53
2022/05/03 00:05:09;;;;;;;;;;;;;;;;;;5073206;28;19909;-51
2022/05/03 00:07:36;;;;;;;;;;;;;;;;;;5071942;28;19917;-49
2022/05/03 00:10:02;;;;;;;;;;;;;;;;;;5073475;28;20374;-44
2022/05/03 00:12:29;;;;;;;;;;;;;;;;;;5072929;28;19917;-53
2022/05/03 00:14:55;;;;;;;;;;;;;;;;;;5073753;28;19915;-52
2022/05/03 00:17:22;;;;;;;;;;;;;;;;;;5072968;28;19962;-49
2022/05/03 00:19:48;;;;;;;;;;;;;;;;;;5073435;28;19908;-54
2022/05/03 00:22:15;;;;;;;;;;;;;;;;;;5072288;28;19909;-50
2022/05/03 00:24:42;;;;;;;;;;;;;;;;;;5073224;28;19950;-48
2022/05/03 00:27:08;;;;;;;;;;;;;;;;;;5073611;28;19912;-50
2022/05/03 00:29:35;;;;;;;;;;;;;;;;;;5073687;28;19908;-43
2022/05/03 00:32:01;;;;;;;;;;;;;;;;;;5073295;28;20148;-43
2022/05/03 00:34:34;;;;;;;;;;;;;;;;;;5064784;28;19919;-50
2022/05/03 00:37:03;;;;;;;;;;;;;;;;;;5053369;28;19909;-51
2022/05/03 00:39:30;;;;;;;;;;;;;;;;;;5051866;28;19915;-46
2022/05/03 00:41:56;;;;;;;;;;;;;;;;;;5052052;28;19913;-49
2022/05/03 00:47:07;;;;;;;;;;;;;;;;;;5053070;28;19915;-53
2022/05/03 00:49:34;;;;;;;;;;;;;;;;;;5053182;28;20015;-51
2022/05/03 00:52:00;;;;;;;;;;;;;;;;;;5052409;28;19924;-55
2022/05/03 00:54:27;;;;;;;;;;;;;;;;;;5052072;28;20363;-51
2022/05/03 00:56:53;;;;;;;;;;;;;;;;;;5052837;28;19916;-54
2022/05/03 00:59:19;;;;;;;;;;;;;;;;;;5053321;28;19963;-49
2022/05/03 01:01:46;;;;;;;;;;;;;;;;;;5052716;28;19908;-61
2022/05/03 01:04:12;;;;;;;;;;;;;;;;;;5052379;28;19909;-44
2022/05/03 01:06:39;;;;;;;;;;;;;;;;;;5051636;28;20291;-51
2022/05/03 01:09:05;;;;;;;;;;;;;;;;;;5053728;28;19948;-54
2022/05/03 01:11:32;;;;;;;;;;;;;;;;;;5053062;28;19916;-49
2022/05/03 01:13:58;;;;;;;;;;;;;;;;;;5053536;28;19954;-57
2022/05/03 01:16:25;;;;;;;;;;;;;;;;;;5052774;28;19905;-54
2022/05/03 01:18:51;;;;;;;;;;;;;;;;;;5052672;28;19969;-55
2022/05/03 01:21:18;;;;;;;;;;;;;;;;;;5052365;28;19962;-54
2022/05/03 01:23:44;;;;;;;;;;;;;;;;;;5052782;28;19936;-49
2022/05/03 01:26:11;;;;;;;;;;;;;;;;;;5051882;28;19927;-46
2022/05/03 01:28:37;;;;;;;;;;;;;;;;;;5052061;28;19908;-51
2022/05/03 01:31:05;;;;;;;;;;;;;;;;;;5052133;28;20027;-53
2022/05/03 01:33:31;;;;;;;;;;;;;;;;;;5052415;28;19915;-54
2022/05/03 01:35:58;;;;;;;;;;;;;;;;;;5056107;28;19959;-52
2022/05/03 01:38:24;;;;;;;;;;;;;;;;;;5072345;28;19908;-47
2022/05/03 01:40:52;;;;;;;;;;;;;;;;;;5076340;28;19953;-48
2022/05/03 01:43:18;;;;;;;;;;;;;;;;;;5076314;28;19935;-52
2022/05/03 01:45:45;;;;;;;;;;;;;;;;;;5076383;28;19911;-49
2022/05/03 01:48:11;;;;;;;;;;;;;;;;;;5076040;28;19912;-51
2022/05/03 01:50:37;;;;;;;;;;;;;;;;;;5076242;28;19959;-45
2022/05/03 01:53:05;;;;;;;;;;;;;;;;;;5075585;28;19912;-50
2022/05/03 01:55:31;;;;;;;;;;;;;;;;;;5076058;28;19914;-51
2022/05/03 01:57:58;;;;;;;;;;;;;;;;;;5069463;28;19975;-55
2022/05/03 02:00:24;;;;;;;;;;;;;;;;;;5055720;28;19913;-54
2022/05/03 02:02:50;;;;;;;;;;;;;;;;;;5055756;28;19915;-56
2022/05/03 02:05:17;;;;;;;;;;;;;;;;;;5055114;28;19915;-46
2022/05/03 02:07:43;;;;;;;;;;;;;;;;;;5054910;28;20327;-52
2022/05/03 02:10:10;;;;;;;;;;;;;;;;;;5055382;28;19909;-51
2022/05/03 02:12:36;;;;;;;;;;;;;;;;;;5056149;28;19916;-54
2022/05/03 02:15:03;;;;;;;;;;;;;;;;;;5056072;28;19996;-55
2022/05/03 02:17:30;;;;;;;;;;;;;;;;;;5055235;28;19909;-54
2022/05/03 02:19:57;;;;;;;;;;;;;;;;;;5055255;28;19916;-50
2022/05/03 02:22:24;;;;;;;;;;;;;;;;;;5054553;28;19913;-53
2022/05/03 02:24:51;;;;;;;;;;;;;;;;;;5055379;28;19909;-53
2022/05/03 02:27:18;;;;;;;;;;;;;;;;;;5053787;28;19920;-54
2022/05/03 02:29:45;;;;;;;;;;;;;;;;;;5055410;28;20386;-52
2022/05/03 02:32:11;;;;;;;;;;;;;;;;;;5055350;28;20322;-54
2022/05/03 02:34:38;;;;;;;;;;;;;;;;;;5054635;28;19916;-51
2022/05/03 02:37:04;;;;;;;;;;;;;;;;;;5055000;28;19909;-51
2022/05/03 02:39:31;;;;;;;;;;;;;;;;;;5054604;28;20485;-50
2022/05/03 02:41:57;;;;;;;;;;;;;;;;;;5054380;28;20271;-48
2022/05/03 02:44:24;;;;;;;;;;;;;;;;;;5053305;28;20008;-55
2022/05/03 02:46:50;;;;;;;;;;;;;;;;;;5054084;28;20221;-51
2022/05/03 02:49:17;;;;;;;;;;;;;;;;;;5054901;28;20301;-51
2022/05/03 02:51:43;;;;;;;;;;;;;;;;;;5054490;28;19917;-48
2022/05/03 02:54:09;;;;;;;;;;;;;;;;;;5054189;28;19944;-48
2022/05/03 02:56:36;;;;;;;;;;;;;;;;;;5055049;28;19909;-52
2022/05/03 02:59:03;;;;;;;;;;;;;;;;;;5054765;28;20303;-53
2022/05/03 03:01:48;;;;;;;;;;;;;;;;;;5053248;28;19908;-53
2022/05/03 03:04:14;;;;;;;;;;;;;;;;;;5064002;28;20000;-43
2022/05/03 03:06:40;;;;;;;;;;;;;;;;;;5074725;28;19981;-56
2022/05/03 03:09:07;;;;;;;;;;;;;;;;;;5074462;28;19908;-50
2022/05/03 03:11:33;;;;;;;;;;;;;;;;;;5074472;28;20025;-54
2022/05/03 03:14:00;;;;;;;;;;;;;;;;;;5073258;28;19916;-51
2022/05/03 03:16:27;;;;;;;;;;;;;;;;;;5072973;28;19958;-52
2022/05/03 03:18:53;;;;;;;;;;;;;;;;;;5074169;28;19915;-56
2022/05/03 03:21:20;;;;;;;;;;;;;;;;;;5074248;28;19909;-53
2022/05/03 03:23:46;;;;;;;;;;;;;;;;;;5064350;28;20382;-47
2022/05/03 03:26:12;;;;;;;;;;;;;;;;;;5053550;28;20330;-51
2022/05/03 03:28:39;;;;;;;;;;;;;;;;;;5053901;28;19988;-53
2022/05/03 03:31:05;;;;;;;;;;;;;;;;;;5054014;28;19959;-55
2022/05/03 03:33:34;;;;;;;;;;;;;;;;;;5053938;28;20004;-45
2022/05/03 03:36:00;;;;;;;;;;;;;;;;;;5053745;28;19905;-53
2022/05/03 03:38:27;;;;;;;;;;;;;;;;;;5054987;28;20252;-55
2022/05/03 03:40:53;;;;;;;;;;;;;;;;;;5052865;28;19909;-52
2022/05/03 03:43:20;;;;;;;;;;;;;;;;;;5053771;28;20314;-59
2022/05/03 03:45:46;;;;;;;;;;;;;;;;;;5055084;28;19917;-54
2022/05/03 03:48:13;;;;;;;;;;;;;;;;;;5054774;28;19947;-50
2022/05/03 03:50:39;;;;;;;;;;;;;;;;;;5054734;28;20371;-55
2022/05/03 03:53:06;;;;;;;;;;;;;;;;;;5055102;28;19913;-53
2022/05/03 03:55:32;;;;;;;;;;;;;;;;;;5054686;28;19909;-55
2022/05/03 03:57:59;;;;;;;;;;;;;;;;;;5052567;28;19909;-52
2022/05/03 04:00:25;;;;;;;;;;;;;;;;;;5054513;28;20344;-54
2022/05/03 04:02:52;;;;;;;;;;;;;;;;;;5055010;28;19909;-47
2022/05/03 04:05:19;;;;;;;;;;;;;;;;;;5053110;28;19912;-50
2022/05/03 04:07:45;;;;;;;;;;;;;;;;;;5054677;28;19920;-56
2022/05/03 04:10:12;;;;;;;;;;;;;;;;;;5054460;28;19915;-52
2022/05/03 04:12:38;;;;;;;;;;;;;;;;;;5054464;28;19971;-55
2022/05/03 04:15:05;;;;;;;;;;;;;;;;;;5054651;28;20024;-52
2022/05/03 04:17:31;;;;;;;;;;;;;;;;;;5054206;28;19913;-56
2022/05/03 04:19:58;;;;;;;;;;;;;;;;;;5053067;28;19913;-53
2022/05/03 04:22:24;;;;;;;;;;;;;;;;;;5053197;28;19909;-54
2022/05/03 04:24:52;;;;;;;;;;;;;;;;;;5054318;28;19916;-54
2022/05/03 04:27:19;;;;;;;;;;;;;;;;;;5054456;28;19909;-50
2022/05/03 04:29:46;;;;;;;;;;;;;;;;;;5054367;28;19909;-53
2022/05/03 04:32:12;;;;;;;;;;;;;;;;;;5054048;28;20291;-52
2022/05/03 04:34:39;;;;;;;;;;;;;;;;;;5066163;28;19908;-55
2022/05/03 04:37:05;;;;;;;;;;;;;;;;;;5073972;28;19942;-55
2022/05/03 04:39:32;;;;;;;;;;;;;;;;;;5074182;28;20348;-55
2022/05/03 04:41:58;;;;;;;;;;;;;;;;;;5073976;28;19913;-51
2022/05/03 04:44:25;;;;;;;;;;;;;;;;;;5072542;28;20282;-55
2022/05/03 04:46:51;;;;;;;;;;;;;;;;;;5074131;28;19909;-48
2022/05/03 04:49:18;;;;;;;;;;;;;;;;;;5073797;28;20403;-58
2022/05/03 04:51:44;;;;;;;;;;;;;;;;;;5073172;28;19923;-51
2022/05/03 04:54:11;;;;;;;;;;;;;;;;;;5072207;28;20003;-57
2022/05/03 04:56:37;;;;;;;;;;;;;;;;;;5072226;28;19961;-52
2022/05/03 04:59:04;;;;;;;;;;;;;;;;;;5072820;28;19913;-55
2022/05/03 05:01:30;;;;;;;;;;;;;;;;;;5072625;28;19977;-54
2022/05/03 05:03:57;;;;;;;;;;;;;;;;;;5071136;28;19909;-53
2022/05/03 05:06:23;;;;;;;;;;;;;;;;;;5071572;28;19963;-55
2022/05/03 05:08:50;;;;;;;;;;;;;;;;;;5071516;28;19928;-57
2022/05/03 05:11:16;;;;;;;;;;;;;;;;;;5072739;28;19913;-52
2022/05/03 05:13:42;;;;;;;;;;;;;;;;;;5071843;28;20283;-55
2022/05/03 05:16:09;;;;;;;;;;;;;;;;;;5072317;28;20334;-53
2022/05/03 05:18:35;;;;;;;;;;;;;;;;;;5072506;28;19915;-52
2022/05/03 05:21:02;;;;;;;;;;;;;;;;;;5071617;28;20354;-59
2022/05/03 05:23:28;;;;;;;;;;;;;;;;;;5072348;28;19912;-54
2022/05/03 05:25:55;;;;;;;;;;;;;;;;;;5072527;28;20339;-50
2022/05/03 05:28:21;;;;;;;;;;;;;;;;;;5071790;28;20411;-53
2022/05/03 05:30:49;;;;;;;;;;;;;;;;;;5071830;28;19912;-60
2022/05/03 05:33:16;;;;;;;;;;;;;;;;;;5071069;28;19919;-51
2022/05/03 05:35:42;;;;;;;;;;;;;;;;;;5072134;28;19915;-53
2022/05/03 05:38:09;;;;;;;;;;;;;;;;;;5070900;28;19909;-51
2022/05/03 05:40:35;;;;;;;;;;;;;;;;;;5058167;28;20356;-57
2022/05/03 05:43:02;;;;;;;;;;;;;;;;;;5052583;28;19909;-53
2022/05/03 05:45:31;;;;;;;;;;;;;;;;;;5052844;28;19924;-48
2022/05/03 05:47:57;;;;;;;;;;;;;;;;;;5052656;28;20363;-49
2022/05/03 05:50:24;;;;;;;;;;;;;;;;;;5051898;28;20295;-50
2022/05/03 05:55:36;;;;;;;;;;;;;;;;;;5052565;28;19955;-49
2022/05/03 05:58:03;;;;;;;;;;;;;;;;;;5051994;28;19904;-48
2022/05/03 06:00:29;;;;;;;;;;;;;;;;;;5052313;28;19909;-52
2022/05/03 06:02:56;;;;;;;;;;;;;;;;;;5051315;28;19908;-47
2022/05/03 06:05:23;;;;;;;;;;;;;;;;;;5052085;28;19917;-52
2022/05/03 06:07:49;;;;;;;;;;;;;;;;;;5052281;28;19916;-54
2022/05/03 06:10:16;;;;;;;;;;;;;;;;;;5052100;28;19912;-50
2022/05/03 06:12:42;;;;;;;;;;;;;;;;;;5049725;28;20587;-51
2022/05/03 06:15:08;;;;;;;;;;;;;;;;;;5051565;28;20348;-55
2022/05/03 06:17:35;;;;;;;;;;;;;;;;;;5051120;28;20398;-53
2022/05/03 06:20:01;;;;;;;;;;;;;;;;;;5051792;28;19909;-54
2022/05/03 06:22:28;;;;;;;;;;;;;;;;;;5055510;28;19924;-51
2022/05/03 06:24:54;;;;;;;;;;;;;;;;;;5054956;28;19909;-55
2022/05/03 06:27:21;;;;;;;;;;;;;;;;;;5055358;28;19909;-51
2022/05/03 06:29:47;;;;;;;;;;;;;;;;;;5056464;28;20457;-53
2022/05/03 06:32:14;;;;;;;;;;;;;;;;;;5053378;28;20330;-56
2022/05/03 06:34:40;;;;;;;;;;;;;;;;;;5055744;28;20364;-47
2022/05/03 06:37:07;;;;;;;;;;;;;;;;;;5055231;28;20283;-54
2022/05/03 06:39:33;;;;;;;;;;;;;;;;;;5054233;28;20326;-54
2022/05/03 06:42:00;;;;;;;;;;;;;;;;;;5054951;28;20335;-48
2022/05/03 06:44:26;;;;;;;;;;;;;;;;;;5054671;28;20193;-53
2022/05/03 06:46:53;;;;;;;;;;;;;;;;;;5054788;28;19948;-53
2022/05/03 06:49:20;;;;;;;;;;;;;;;;;;5054531;28;19908;-51
2022/05/03 06:51:46;;;;;;;;;;;;;;;;;;5055685;28;19938;-49
2022/05/03 06:54:13;;;;;;;;;;;;;;;;;;5052583;28;19915;-43
2022/05/03 06:56:39;;;;;;;;;;;;;;;;;;5054835;28;19912;-52
2022/05/03 06:59:09;;;;;;;;;;;;;;;;;;5054595;28;19909;-53
2022/05/03 07:01:35;;;;;;;;;;;;;;;;;;5054868;28;19920;-49
2022/05/03 07:04:01;;;;;;;;;;;;;;;;;;5054926;28;19909;-47
2022/05/03 07:06:28;;;;;;;;;;;;;;;;;;5063948;28;19925;-52
2022/05/03 07:08:54;;;;;;;;;;;;;;;;;;5074368;28;19916;-53
2022/05/03 07:11:21;;;;;;;;;;;;;;;;;;5074461;28;20331;-55
2022/05/03 07:13:50;;;;;;;;;;;;;;;;;;5074427;28;20011;-48
2022/05/03 07:16:17;;;;;;;;;;;;;;;;;;5073973;28;19919;-55
2022/05/03 07:24:12;;;;;;;;;;;;;;;;;;5074108;28;19981;-51
2022/05/03 07:26:39;;;;;;;;;;;;;;;;;;5074463;28;19931;-48
2022/05/03 07:29:07;;;;;;;;;;;;;;;;;;5073558;28;20039;-57
2022/05/03 07:31:33;;;;;;;;;;;;;;;;;;5073718;28;20282;-45
2022/05/03 07:34:00;;;;;;;;;;;;;;;;;;5065407;28;19987;-54
2022/05/03 07:36:27;;;;;;;;;;;;;;;;;;5054758;28;19959;-50
2022/05/03 07:38:53;;;;;;;;;;;;;;;;;;5053795;28;19925;-50
2022/05/03 07:41:19;;;;;;;;;;;;;;;;;;5053554;28;19978;-44
2022/05/03 07:43:46;;;;;;;;;;;;;;;;;;5053428;28;19909;-48
2022/05/03 07:46:12;;;;;;;;;;;;;;;;;;5053638;28;19908;-52
2022/05/03 07:48:39;;;;;;;;;;;;;;;;;;5053804;28;19984;-50
2022/05/03 07:51:05;;;;;;;;;;;;;;;;;;5053057;28;19936;-54
2022/05/03 07:53:32;;;;;;;;;;;;;;;;;;5057395;28;19919;-52
2022/05/03 07:55:58;;;;;;;;;;;;;;;;;;5074701;28;19970;-56
2022/05/03 07:58:25;;;;;;;;;;;;;;;;;;5074262;28;19951;-55
2022/05/03 08:00:51;;;;;;;;;;;;;;;;;;5073458;28;19908;-48
2022/05/03 08:03:18;;;;;;;;;;;;;;;;;;5069806;28;19935;-53
2022/05/03 08:05:44;;;;;;;;;;;;;;;;;;5053981;28;19917;-49
2022/05/03 08:08:11;;;;;;;;;;;;;;;;;;5054520;28;19916;-54
2022/05/03 08:10:37;;;;;;;;;;;;;;;;;;5054282;28;19927;-53
2022/05/03 08:13:04;;;;;;;;;;;;;;;;;;5054228;28;19916;-50
2022/05/03 08:15:31;;;;;;;;;;;;;;;;;;5053610;28;20347;-47
2022/05/03 08:17:57;;;;;;;;;;;;;;;;;;5052937;28;20372;-52
2022/05/03 08:20:24;;;;;;;;;;;;;;;;;;5053508;28;19909;-44
2022/05/03 08:22:51;;;;;;;;;;;;;;;;;;5052966;28;19912;-49
2022/05/03 08:25:18;;;;;;;;;;;;;;;;;;5052968;28;20003;-46
2022/05/03 08:27:44;;;;;;;;;;;;;;;;;;5052933;28;19912;-51
2022/05/03 08:30:11;;;;;;;;;;;;;;;;;;5062878;28;19908;-54
2022/05/03 08:32:38;;;;;;;;;;;;;;;;;;5072904;28;19920;-50
2022/05/03 08:35:04;;;;;;;;;;;;;;;;;;5072783;28;19909;-46
2022/05/03 08:43:00;;;;;;;;;;;;;;;;;;5072030;28;19915;-56
2022/05/03 08:45:26;;;;;;;;;;;;;;;;;;5072124;28;20025;-54
2022/05/03 08:47:53;;;;;;;;;;;;;;;;;;5072085;28;20222;-51
2022/05/03 08:50:20;;;;;;;;;;;;;;;;;;5071841;28;19916;-55
2022/05/03 08:52:46;;;;;;;;;;;;;;;;;;5072591;28;20366;-55
2022/05/03 08:55:13;;;;;;;;;;;;;;;;;;5072410;28;20343;-48
2022/05/03 08:57:39;;;;;;;;;;;;;;;;;;5071075;28;19915;-54
2022/05/03 09:00:05;;;;;;;;;;;;;;;;;;5072787;28;19916;-55
2022/05/03 09:02:33;;;;;;;;;;;;;;;;;;5072746;28;20007;-56
2022/05/03 09:05:00;;;;;;;;;;;;;;;;;;5072325;28;19927;-55
2022/05/03 09:07:26;;;;;;;;;;;;;;;;;;5072646;28;19920;-49
2022/05/03 09:09:53;;;;;;;;;;;;;;;;;;5072383;28;20378;-44
2022/05/03 09:12:19;;;;;;;;;;;;;;;;;;5032298;28;19940;-58
2022/05/03 09:14:46;;;;;;;;;;;;;;;;;;5032583;28;19954;-54
2022/05/03 09:17:12;;;;;;;;;;;;;;;;;;5032609;28;19915;-56
2022/05/03 09:19:39;;;;;;;;;;;;;;;;;;5032267;28;19909;-53
2022/05/03 09:24:50;;;;;;;;;;;;;;;;;;5072779;28;20252;-52
2022/05/03 09:27:16;;;;;;;;;;;;;;;;;;5072379;28;19909;-51
2022/05/03 09:29:43;;;;;;;;;;;;;;;;;;5072650;28;20011;-51
2022/05/03 09:32:09;;;;;;;;;;;;;;;;;;5072422;28;19974;-54
2022/05/03 09:34:36;;;;;;;;;;;;;;;;;;5072579;28;20423;-50
2022/05/03 09:37:05;;;;;;;;;;;;;;;;;;5072345;28;20256;-53
2022/05/03 09:39:31;;;;;;;;;;;;;;;;;;5072549;28;20440;-48
2022/05/03 09:41:58;;;;;;;;;;;;;;;;;;5072177;28;19951;-46
2022/05/03 09:44:24;;;;;;;;;;;;;;;;;;5072799;28;19908;-50
2022/05/03 09:46:51;;;;;;;;;;;;;;;;;;5072930;28;19987;-49
2022/05/03 09:49:18;;;;;;;;;;;;;;;;;;5072320;28;19952;-51
2022/05/03 09:51:44;;;;;;;;;;;;;;;;;;5071994;28;20027;-56
2022/05/03 09:54:10;;;;;;;;;;;;;;;;;;5072788;28;19915;-41
2022/05/03 09:56:37;;;;;;;;;;;;;;;;;;5075436;28;19909;-48
2022/05/03 09:59:03;;;;;;;;;;;;;;;;;;5076550;28;19908;-54
2022/05/03 10:01:30;;;;;;;;;;;;;;;;;;5075773;28;20321;-53
2022/05/03 10:03:56;;;;;;;;;;;;;;;;;;5075794;28;19992;-48
2022/05/03 10:06:23;;;;;;;;;;;;;;;;;;5076444;28;19920;-44
2022/05/03 10:08:49;;;;;;;;;;;;;;;;;;5074830;28;19915;-47
2022/05/03 10:11:16;;;;;;;;;;;;;;;;;;5076204;28;20033;-52
2022/05/03 10:13:42;;;;;;;;;;;;;;;;;;5056911;28;19908;-50
2022/05/03 10:21:38;;;;;;;;;;;;;;;;;;5055658;28;19919;-54
2022/05/03 10:24:04;;;;;;;;;;;;;;;;;;5054871;28;19954;-57
2022/05/03 10:26:31;;;;;;;;;;;;;;;;;;5055699;28;19916;-48
2022/05/03 10:29:01;;;;;;;;;;;;;;;;;;5053316;28;19967;-46
2022/05/03 10:31:27;;;;;;;;;;;;;;;;;;5055026;28;19956;-54
2022/05/03 10:34:04;;;;;;;;;;;;;;;;;;;;;
2022/05/03 10:36:31;;;;;;;;;;;;;;;;;;5013913;28;19909;-48
2022/05/03 10:38:58;;;;;;;;;;;;;;;;;;5056148;28;19948;-51
2022/05/03 10:41:25;;;;;;;;;;;;;;;;;;5054352;28;19915;-51
2022/05/03 10:43:51;;;;;;;;;;;;;;;;;;5055837;28;19909;-48
2022/05/03 10:46:18;;;;;;;;;;;;;;;;;;5055506;28;19999;-49
2022/05/03 10:48:44;;;;;;;;;;;;;;;;;;5053094;28;20009;-52
2022/05/03 10:51:17;;;;;;;;;;;;;;;;;;5055537;28;19917;-45
2022/05/03 10:53:43;;;;;;;;;;;;;;;;;;5056047;28;19909;-53
2022/05/03 10:56:10;;;;;;;;;;;;;;;;;;5054344;28;19909;-53
2022/05/03 10:58:38;;;;;;;;;;;;;;;;;;5055685;28;20379;-55
2022/05/03 11:01:05;;;;;;;;;;;;;;;;;;5054463;28;19963;-50
2022/05/03 11:03:31;;;;;;;;;;;;;;;;;;5055676;28;19909;-54
2022/05/03 11:06:00;;;;;;;;;;;;;;;;;;5055712;28;20514;-53
2022/05/03 11:08:27;;;;;;;;;;;;;;;;;;5055127;28;19909;-51
2022/05/03 11:10:53;;;;;;;;;;;;;;;;;;5055205;28;19962;-57
2022/05/03 11:13:20;;;;;;;;;;;;;;;;;;5055508;28;19912;-52
2022/05/03 11:15:46;;;;;;;;;;;;;;;;;;5054218;28;20066;-52
2022/05/03 11:18:13;;;;;;;;;;;;;;;;;;5059687;28;19909;-54
2022/05/03 11:20:39;;;;;;;;;;;;;;;;;;5075206;28;20385;-51
2022/05/03 11:23:06;;;;;;;;;;;;;;;;;;5075138;28;19931;-51
2022/05/03 11:25:32;;;;;;;;;;;;;;;;;;5075272;28;19909;-45
2022/05/03 11:27:59;;;;;;;;;;;;;;;;;;5075126;28;19908;-51
2022/05/03 11:30:25;;;;;;;;;;;;;;;;;;5075109;28;19912;-46
2022/05/03 11:32:52;;;;;;;;;;;;;;;;;;5074202;28;20016;-53
2022/05/03 11:35:18;;;;;;;;;;;;;;;;;;5075069;28;19913;-47
2022/05/03 11:37:45;;;;;;;;;;;;;;;;;;5074877;28;19954;-50
2022/05/03 11:40:11;;;;;;;;;;;;;;;;;;5073229;28;19915;-53
2022/05/03 11:42:38;;;;;;;;;;;;;;;;;;5073899;28;19913;-51
2022/05/03 11:45:04;;;;;;;;;;;;;;;;;;5074146;28;19931;-56
2022/05/03 11:47:31;;;;;;;;;;;;;;;;;;5074152;28;19908;-49
2022/05/03 11:49:57;;;;;;;;;;;;;;;;;;5073942;28;20371;-53
2022/05/03 11:57:53;;;;;;;;;;;;;;;;;;5074165;28;19991;-45
2022/05/03 12:00:20;;;;;;;;;;;;;;;;;;5071405;28;19991;-52
2022/05/03 12:02:47;;;;;;;;;;;;;;;;;;5053545;28;19908;-52
2022/05/03 12:05:17;;;;;;;;;;;;;;;;;;5053432;28;19913;-52
2022/05/03 12:07:44;;;;;;;;;;;;;;;;;;5053683;28;19921;-47
2022/05/03 12:10:10;;;;;;;;;;;;;;;;;;5053835;28;20253;-53
2022/05/03 12:12:43;;;;;;;;;;;;;;;;;;5052163;28;21314;-58
2022/05/03 12:15:10;;;;;;;;;;;;;;;;;;5053206;28;19909;-51
2022/05/03 12:17:36;;;;;;;;;;;;;;;;;;5053399;28;19909;-53
2022/05/03 12:20:05;;;;;;;;;;;;;;;;;;5054356;28;19909;-54
2022/05/03 12:22:32;;;;;;;;;;;;;;;;;;5072807;28;19908;-53
2022/05/03 12:24:59;;;;;;;;;;;;;;;;;;5072778;28;20383;-48
2022/05/03 12:27:25;;;;;;;;;;;;;;;;;;5073347;28;19908;-46
2022/05/03 12:29:52;;;;;;;;;;;;;;;;;;5073091;28;19981;-43
2022/05/03 12:32:19;;;;;;;;;;;;;;;;;;5073285;28;19928;-47
2022/05/03 12:34:45;;;;;;;;;;;;;;;;;;5072955;28;19955;-46
2022/05/03 12:37:14;;;;;;;;;;;;;;;;;;5073084;28;20002;-54
2022/05/03 12:39:40;;;;;;;;;;;;;;;;;;5073179;28;19908;-51
2022/05/03 12:42:07;;;;;;;;;;;;;;;;;;5073141;28;19916;-49
2022/05/03 12:44:33;;;;;;;;;;;;;;;;;;5073477;28;19915;-44
2022/05/03 12:46:59;;;;;;;;;;;;;;;;;;5073292;28;19913;-47
2022/05/03 12:49:26;;;;;;;;;;;;;;;;;;5073011;28;19915;-40
2022/05/03 12:51:52;;;;;;;;;;;;;;;;;;5072781;28;19970;-45
2022/05/03 12:54:19;;;;;;;;;;;;;;;;;;5073002;28;19915;-51
2022/05/03 12:59:30;;;;;;;;;;;;;;;;;;5072990;28;19943;-50
2022/05/03 13:01:57;;;;;;;;;;;;;;;;;;5072839;28;19962;-47
2022/05/03 13:04:23;;;;;;;;;;;;;;;;;;5072817;28;19908;-52
2022/05/03 13:06:50;;;;;;;;;;;;;;;;;;5072688;28;19927;-54
2022/05/03 13:09:16;;;;;;;;;;;;;;;;;;5072965;28;20000;-55
2022/05/03 13:11:44;;;;;;;;;;;;;;;;;;5072897;28;20030;-57
2022/05/03 13:14:11;;;;;;;;;;;;;;;;;;5073033;28;20173;-52
2022/05/03 13:16:37;;;;;;;;;;;;;;;;;;5072565;28;19916;-54
2022/05/03 13:19:04;;;;;;;;;;;;;;;;;;5072812;28;19909;-52
2022/05/03 13:21:30;;;;;;;;;;;;;;;;;;5072532;28;20373;-51
2022/05/03 13:23:57;;;;;;;;;;;;;;;;;;5073090;28;20228;-54
2022/05/03 13:26:23;;;;;;;;;;;;;;;;;;5072883;28;20274;-51
2022/05/03 13:28:50;;;;;;;;;;;;;;;;;;5072513;28;19908;-53
2022/05/03 13:31:16;;;;;;;;;;;;;;;;;;5075962;28;19920;-56
2022/05/03 13:33:43;;;;;;;;;;;;;;;;;;5076857;28;19995;-46
2022/05/03 13:41:43;;;;;;;;;;;;;;;;;;5056569;28;19980;-50
2022/05/03 13:44:10;;;;;;;;;;;;;;;;;;5077153;28;20332;-44
2022/05/03 13:46:37;;;;;;;;;;;;;;;;;;5076741;28;19948;-49
2022/05/03 13:49:04;;;;;;;;;;;;;;;;;;5076312;28;19908;-50
2022/05/03 13:51:30;;;;;;;;;;;;;;;;;;5076552;28;20011;-45
2022/05/03 13:53:58;;;;;;;;;;;;;;;;;;5076453;28;19909;-56
2022/05/03 13:56:24;;;;;;;;;;;;;;;;;;5075995;28;19908;-50
2022/05/03 13:58:51;;;;;;;;;;;;;;;;;;5076070;28;20347;-47
2022/05/03 14:01:17;;;;;;;;;;;;;;;;;;5076878;28;20374;-42
2022/05/03 14:03:43;;;;;;;;;;;;;;;;;;5076013;28;20007;-49
2022/05/03 14:06:10;;;;;;;;;;;;;;;;;;5075985;28;19920;-42
2022/05/03 14:08:36;;;;;;;;;;;;;;;;;;5076192;28;19977;-48
2022/05/03 14:11:03;;;;;;;;;;;;;;;;;;5075867;28;19908;-47
2022/05/03 14:13:29;;;;;;;;;;;;;;;;;;5076086;28;19909;-51
2022/05/03 14:15:56;;;;;;;;;;;;;;;;;;5076186;28;19908;-43
2022/05/03 14:18:23;;;;;;;;;;;;;;;;;;5075734;28;20327;-45
2022/05/03 14:20:49;;;;;;;;;;;;;;;;;;5075742;28;19915;-43
2022/05/03 14:23:16;;;;;;;;;;;;;;;;;;5075606;28;20398;-46
2022/05/03 14:25:42;;;;;;;;;;;;;;;;;;5076129;28;19908;-42
2022/05/03 14:28:08;;;;;;;;;;;;;;;;;;5076145;28;19979;-48
2022/05/03 14:30:35;;;;;;;;;;;;;;;;;;5074987;28;19909;-51
2022/05/03 14:33:04;;;;;;;;;;;;;;;;;;5055297;28;20000;-54
2022/05/03 14:35:30;;;;;;;;;;;;;;;;;;5055844;28;19996;-53
2022/05/03 14:37:56;;;;;;;;;;;;;;;;;;5054214;28;19983;-40
2022/05/03 14:40:24;;;;;;;;;;;;;;;;;;5055909;28;20011;-41
2022/05/03 14:42:51;;;;;;;;;;;;;;;;;;5054687;28;19909;-43
2022/05/03 14:45:18;;;;;;;;;;;;;;;;;;5055920;28;20268;-40
2022/05/03 14:47:44;;;;;;;;;;;;;;;;;;5055465;28;19908;-40
2022/05/03 14:50:11;;;;;;;;;;;;;;;;;;5055626;28;20008;-46
2022/05/03 14:52:37;;;;;;;;;;;;;;;;;;5055489;28;19917;-42
2022/05/03 14:55:04;;;;;;;;;;;;;;;;;;5055583;28;19916;-44
2022/05/03 15:02:59;;;;;;;;;;;;;;;;;;5075013;28;19971;-48
2022/05/03 15:05:26;;;;;;;;;;;;;;;;;;5074910;28;20434;-53
2022/05/03 15:07:53;;;;;;;;;;;;;;;;;;5075209;28;20014;-52
2022/05/03 15:10:19;;;;;;;;;;;;;;;;;;5075121;28;20277;-56
2022/05/03 15:12:46;;;;;;;;;;;;;;;;;;5074878;28;19923;-50
2022/05/03 15:15:16;;;;;;;;;;;;;;;;;;5074773;28;19916;-52
2022/05/03 15:17:42;;;;;;;;;;;;;;;;;;5074888;28;20054;-49
2022/05/03 15:20:09;;;;;;;;;;;;;;;;;;5075332;28;19928;-50
2022/05/03 15:25:20;;;;;;;;;;;;;;;;;;5074923;28;19912;-49
2022/05/03 15:27:47;;;;;;;;;;;;;;;;;;5074845;28;19990;-43
2022/05/03 15:30:14;;;;;;;;;;;;;;;;;;5074558;28;19916;-47
2022/05/03 15:32:40;;;;;;;;;;;;;;;;;;5073906;28;20030;-47
2022/05/03 15:35:07;;;;;;;;;;;;;;;;;;5074715;28;19916;-47
2022/05/03 15:37:33;;;;;;;;;;;;;;;;;;5074228;28;19916;-50
2022/05/03 15:40:00;;;;;;;;;;;;;;;;;;5074539;28;19916;-54
2022/05/03 15:42:26;;;;;;;;;;;;;;;;;;5063981;28;19976;-46
2022/05/03 15:44:56;;;;;;;;;;;;;;;;;;5053370;28;20405;-50
2022/05/03 15:47:22;;;;;;;;;;;;;;;;;;5054322;28;20433;-53
2022/05/03 15:49:49;;;;;;;;;;;;;;;;;;5054439;28;20326;-48
2022/05/03 15:52:15;;;;;;;;;;;;;;;;;;5054147;28;19960;-45
2022/05/03 15:54:42;;;;;;;;;;;;;;;;;;5053740;28;20303;-42
2022/05/03 15:57:08;;;;;;;;;;;;;;;;;;5052595;28;19913;-46
2022/05/03 15:59:35;;;;;;;;;;;;;;;;;;5053842;28;19908;-46
2022/05/03 16:02:02;;;;;;;;;;;;;;;;;;5053479;28;19956;-47
2022/05/03 16:04:30;;;;;;;;;;;;;;;;;;5053514;28;19958;-47
2022/05/03 16:06:57;;;;;;;;;;;;;;;;;;5053521;28;19920;-50
2022/05/03 16:09:23;;;;;;;;;;;;;;;;;;5053745;28;19948;-51
2022/05/03 16:11:50;;;;;;;;;;;;;;;;;;5053793;28;19917;-55
2022/05/03 16:14:16;;;;;;;;;;;;;;;;;;5054033;28;20385;-53
2022/05/03 16:16:43;;;;;;;;;;;;;;;;;;5053546;28;20363;-51
2022/05/03 16:19:09;;;;;;;;;;;;;;;;;;5054222;28;19908;-57
2022/05/03 16:21:36;;;;;;;;;;;;;;;;;;5054061;28;20003;-54
2022/05/03 16:24:02;;;;;;;;;;;;;;;;;;5053764;28;19909;-51
2022/05/03 16:26:28;;;;;;;;;;;;;;;;;;5053756;28;19935;-42
2022/05/03 16:28:55;;;;;;;;;;;;;;;;;;5053466;28;19915;-54
2022/05/03 16:31:21;;;;;;;;;;;;;;;;;;5053305;28;19917;-46
2022/05/03 16:33:57;;;;;;;;;;;;;;;;;;5072348;28;20420;-47
2022/05/03 16:42:11;;;;;;;;;;;;;;;;;;5073526;28;19911;-45
2022/05/03 16:44:38;;;;;;;;;;;;;;;;;;5073062;28;19984;-46
2022/05/03 16:47:05;;;;;;;;;;;;;;;;;;5073141;28;19919;-51
2022/05/03 16:49:31;;;;;;;;;;;;;;;;;;5073106;28;19916;-45
2022/05/03 16:51:57;;;;;;;;;;;;;;;;;;5073351;28;19920;-54
2022/05/03 16:54:24;;;;;;;;;;;;;;;;;;5073412;28;19908;-44
2022/05/03 16:56:50;;;;;;;;;;;;;;;;;;5073274;28;19909;-48
2022/05/03 16:59:17;;;;;;;;;;;;;;;;;;5072988;28;19909;-47
2022/05/03 17:01:43;;;;;;;;;;;;;;;;;;5073190;28;19940;-43
2022/05/03 17:04:10;;;;;;;;;;;;;;;;;;5073023;28;19920;-48
2022/05/03 17:06:37;;;;;;;;;;;;;;;;;;5072951;28;19920;-53
2022/05/03 17:09:03;;;;;;;;;;;;;;;;;;5073037;28;19916;-50
2022/05/03 17:11:30;;;;;;;;;;;;;;;;;;5071713;28;19951;-48
2022/05/03 17:13:56;;;;;;;;;;;;;;;;;;5072808;28;19916;-45
2022/05/03 17:16:23;;;;;;;;;;;;;;;;;;5072918;28;19949;-49
2022/05/03 17:18:49;;;;;;;;;;;;;;;;;;5072722;28;20008;-47
2022/05/03 17:21:16;;;;;;;;;;;;;;;;;;5072735;28;19933;-52
2022/05/03 17:23:42;;;;;;;;;;;;;;;;;;5072919;28;19915;-55
2022/05/03 17:26:09;;;;;;;;;;;;;;;;;;5072928;28;20371;-53
2022/05/03 17:28:36;;;;;;;;;;;;;;;;;;5072712;28;20359;-48
2022/05/03 17:31:02;;;;;;;;;;;;;;;;;;5072581;28;19909;-47
2022/05/03 17:33:29;;;;;;;;;;;;;;;;;;5073048;28;19923;-49